Главная страница
METAR-TAF:

METAR-TAF

Аэропорты :

Гран-Канария, Испания

широта: 27-56N, долгота: 015-23W, высота над уровнем моря: 23 м

Текущие метеонаблюдения

Эта сводка был подготовлена 28 минут назад, в 07:00 UTC
Ветер 7 Узел от северно-северо-западный, изменяющийся между западно-северо-западный и северный
Температура 17°C
Влажность 72%
Давление 1017 hPa
Видимость 10 км и более
небольшая облачность на высоте 2500 фута
Рассеянная облачность на высоте 5000 фута

METAR: GCLP 230700Z 34007KT 300V360 9999 FEW025 BKN050 17/12 Q1017 NOSIG

Время: 08:28 (07:28 UTC)

Прогноз

Эта сводка был подготовлена 5 часа и 28 минут назад, в 02:00 UTC
Прогноз действительный с 23-го 03 UTC до 24-го 03 UTC
Ветер 10 Узел от северно-северо-западный
Видимость 10 км и более
Отдельные облака на высоте 3000 фута
Вероятность 40% :
временами
С 23-го 12 UTC до 23-го 22 UTC
Ветер 18 Узел от северный с порывами до 28 Узел

TAF: GCLP 230200Z 2303/2403 34010KT 9999 SCT030 TX21/2314Z TN16/2306Z PROB40 TEMPO 2312/2322 35018G28KT

Метеонаблюдения и прогнозы для более 4000 аэропортов (сводки METAR и TAF).

Имеющиеся станции представлены на карте желтыми и красными точками.

Чтобы увидеть название станции, наведите на нее мышь.

Затем щелкните, чтобы увидеть метеонаблюдения и метеопрогнозы.

Управление картой: чтобы увеличить масштаб, щелкните зеленые кнопки с черным крестиком; чтобы уменьшить масштаб, щелкните зеленую кнопку с тире; для просмотра соседних карт щелкайте зеленые стрелки.


METAR-TAF: